createdAt,value
2023-07-02T00:00:08.956Z,5.38
2023-07-02T00:02:37.714Z,5.03
2023-07-02T00:05:05.728Z,5.03
2023-07-02T00:07:34.067Z,5.28
2023-07-02T00:10:01.498Z,5.22
2023-07-02T00:12:28.798Z,4.70
2023-07-02T00:14:56.164Z,5.00
2023-07-02T00:17:23.554Z,5.80
2023-07-02T00:19:53.256Z,4.93
2023-07-02T00:22:21.731Z,5.43
2023-07-02T00:24:51.529Z,5.25
2023-07-02T00:27:19.097Z,5.47
2023-07-02T00:29:46.488Z,5.45
2023-07-02T00:32:13.906Z,5.63
2023-07-02T00:34:41.287Z,5.28
2023-07-02T00:37:08.611Z,5.38
2023-07-02T00:39:35.978Z,5.40
2023-07-02T00:42:04.246Z,5.13
2023-07-02T00:44:31.797Z,5.10
2023-07-02T00:46:59.564Z,4.90
2023-07-02T00:49:27.795Z,5.15
2023-07-02T00:51:56.110Z,5.30
2023-07-02T00:54:23.524Z,5.70
2023-07-02T00:56:51.658Z,5.45
2023-07-02T00:59:19.210Z,4.80
2023-07-02T01:01:51.083Z,5.20
2023-07-02T01:04:19.584Z,5.15
2023-07-02T01:06:47.130Z,5.13
2023-07-02T01:09:14.491Z,5.00
2023-07-02T01:11:46.260Z,5.30
2023-07-02T01:14:23.774Z,5.65
2023-07-02T01:16:52.662Z,5.05
2023-07-02T01:19:41.662Z,4.72
2023-07-02T01:22:10.344Z,5.20
2023-07-02T01:24:39.964Z,5.68
2023-07-02T01:27:07.668Z,5.03
2023-07-02T01:29:37.896Z,5.25
2023-07-02T01:32:06.076Z,5.30
2023-07-02T01:34:33.740Z,5.32
2023-07-02T01:37:01.448Z,5.00
2023-07-02T01:39:28.783Z,5.28
2023-07-02T01:42:09.024Z,5.00
2023-07-02T01:44:36.669Z,5.88
2023-07-02T01:47:04.638Z,5.20
2023-07-02T01:49:32.218Z,5.03
2023-07-02T01:51:59.753Z,5.15
2023-07-02T01:54:28.784Z,5.05
2023-07-02T01:56:57.380Z,5.00
2023-07-02T01:59:25.421Z,5.28
2023-07-02T02:01:53.619Z,5.15
2023-07-02T02:04:20.987Z,5.45
2023-07-02T02:06:48.431Z,5.30
2023-07-02T02:09:15.814Z,5.65
2023-07-02T02:11:46.953Z,5.60
2023-07-02T02:14:14.354Z,5.78
2023-07-02T02:16:41.747Z,5.55
2023-07-02T02:19:09.120Z,5.78
2023-07-02T02:21:36.475Z,5.55
2023-07-02T02:24:03.832Z,5.68
2023-07-02T02:26:31.159Z,5.97
2023-07-02T02:28:58.530Z,5.75
2023-07-02T02:31:25.923Z,5.60
2023-07-02T02:33:53.261Z,5.78
2023-07-02T02:36:20.584Z,5.68
2023-07-02T02:38:48.059Z,5.32
2023-07-02T02:41:15.414Z,5.85
2023-07-02T02:43:45.992Z,5.78
2023-07-02T02:46:14.029Z,5.90
2023-07-02T02:48:41.561Z,5.75
2023-07-02T02:51:08.850Z,5.60
2023-07-02T02:53:36.601Z,5.97
2023-07-02T02:56:04.054Z,5.80
2023-07-02T02:58:31.417Z,5.78
2023-07-02T03:00:59.116Z,5.85
2023-07-02T03:03:26.539Z,5.80
2023-07-02T03:05:53.857Z,6.65
2023-07-02T03:08:21.529Z,5.75
2023-07-02T03:10:49.161Z,6.05
2023-07-02T03:13:16.640Z,5.72
2023-07-02T03:15:44.056Z,5.65
2023-07-02T03:18:11.472Z,5.78
2023-07-02T03:20:38.742Z,5.78
2023-07-02T03:23:06.283Z,5.75
2023-07-02T03:25:33.757Z,6.18
2023-07-02T03:28:01.099Z,5.88
2023-07-02T03:30:28.368Z,5.63
2023-07-02T03:32:55.963Z,5.75
2023-07-02T03:35:23.293Z,6.00
2023-07-02T03:37:50.602Z,5.70
2023-07-02T03:40:17.958Z,5.78
2023-07-02T03:42:45.260Z,5.63
2023-07-02T03:45:12.551Z,5.53
2023-07-02T03:47:39.884Z,5.53
2023-07-02T03:50:07.566Z,5.82
2023-07-02T03:52:34.851Z,5.20
2023-07-02T03:55:02.214Z,5.10
2023-07-02T03:57:29.756Z,5.03
2023-07-02T03:59:57.065Z,5.07
2023-07-02T04:02:24.446Z,5.20
2023-07-02T04:04:51.827Z,5.30
2023-07-02T04:07:19.244Z,5.35
2023-07-02T04:09:46.549Z,5.53
2023-07-02T04:12:13.969Z,5.55
2023-07-02T04:14:41.315Z,5.43
2023-07-02T04:17:08.682Z,5.03
2023-07-02T04:19:36.035Z,5.10
2023-07-02T04:22:04.011Z,5.15
2023-07-02T04:24:31.377Z,5.20
2023-07-02T04:27:16.801Z,5.15
2023-07-02T04:29:48.203Z,4.95
2023-07-02T04:32:15.637Z,5.47
2023-07-02T04:34:43.024Z,4.50
2023-07-02T04:37:11.249Z,5.28
2023-07-02T04:39:38.699Z,4.78
2023-07-02T04:42:06.473Z,5.20
2023-07-02T04:44:33.757Z,4.75
2023-07-02T04:47:03.863Z,5.25
2023-07-02T04:49:31.176Z,5.18
2023-07-02T04:51:58.436Z,4.65
2023-07-02T04:54:25.922Z,4.97
2023-07-02T04:56:53.202Z,4.80
2023-07-02T04:59:22.695Z,4.70
2023-07-02T05:01:50.117Z,4.30
2023-07-02T05:04:17.590Z,4.78
2023-07-02T05:06:45.041Z,4.60
2023-07-02T05:09:12.407Z,4.65
2023-07-02T05:11:39.797Z,4.28
2023-07-02T05:14:07.103Z,4.60
2023-07-02T05:16:34.399Z,4.93
2023-07-02T05:19:01.715Z,4.63
2023-07-02T05:21:29.076Z,4.38
2023-07-02T05:23:56.421Z,4.32
2023-07-02T05:26:23.683Z,4.57
2023-07-02T05:28:51.038Z,4.97
2023-07-02T05:31:18.458Z,4.82
2023-07-02T05:33:45.767Z,4.63
2023-07-02T05:36:13.436Z,4.93
2023-07-02T05:38:40.680Z,4.40
2023-07-02T05:41:07.992Z,4.25
2023-07-02T05:43:35.325Z,4.68
2023-07-02T05:46:02.672Z,4.65
2023-07-02T05:48:30.009Z,4.38
2023-07-02T05:50:57.412Z,4.70
2023-07-02T05:53:24.788Z,4.20
2023-07-02T05:55:52.131Z,4.47
2023-07-02T05:58:19.907Z,4.50
2023-07-02T06:00:50.825Z,4.70
2023-07-02T06:03:21.725Z,4.47
2023-07-02T06:05:52.947Z,4.78
2023-07-02T06:08:20.521Z,4.53
2023-07-02T06:10:49.519Z,4.57
2023-07-02T06:13:17.411Z,4.53
2023-07-02T06:15:45.140Z,4.40
2023-07-02T06:18:12.578Z,4.70
2023-07-02T06:20:39.981Z,4.70
2023-07-02T06:23:07.388Z,5.35
2023-07-02T06:25:34.722Z,4.90
2023-07-02T06:28:02.156Z,5.45
2023-07-02T06:30:29.515Z,5.30
2023-07-02T06:32:57.230Z,4.80
2023-07-02T06:35:24.575Z,5.10
2023-07-02T06:37:51.917Z,5.20
2023-07-02T06:40:19.387Z,5.07
2023-07-02T06:42:46.684Z,5.32
2023-07-02T06:45:14.005Z,5.43
2023-07-02T06:47:41.473Z,6.03
2023-07-02T06:50:09.040Z,5.53
2023-07-02T06:52:37.546Z,5.50
2023-07-02T06:55:05.722Z,5.55
2023-07-02T06:57:33.030Z,6.00
2023-07-02T07:00:01.335Z,6.13
2023-07-02T07:02:29.197Z,5.28
2023-07-02T07:04:56.580Z,5.60
2023-07-02T07:07:23.917Z,5.50
2023-07-02T07:09:51.259Z,5.75
2023-07-02T07:12:18.570Z,6.15
2023-07-02T07:14:46.069Z,6.13
2023-07-02T07:17:13.514Z,5.68
2023-07-02T07:19:40.864Z,6.20
2023-07-02T07:22:08.260Z,5.90
2023-07-02T07:24:35.604Z,5.50
2023-07-02T07:27:02.960Z,5.80
2023-07-02T07:29:30.260Z,5.93
2023-07-02T07:31:57.681Z,5.22
2023-07-02T07:34:25.147Z,6.07
2023-07-02T07:36:52.443Z,6.22
2023-07-02T07:39:19.784Z,6.50
2023-07-02T07:41:50.193Z,6.03
2023-07-02T07:44:17.594Z,6.00
2023-07-02T07:46:44.980Z,6.35
2023-07-02T07:49:12.842Z,6.47
2023-07-02T07:51:40.169Z,6.50
2023-07-02T07:54:07.564Z,6.50
2023-07-02T07:56:34.968Z,6.20
2023-07-02T07:59:02.287Z,6.28
2023-07-02T08:01:29.698Z,6.38
2023-07-02T08:03:57.734Z,6.47
2023-07-02T08:06:25.234Z,6.55
2023-07-02T08:08:52.584Z,6.60
2023-07-02T08:11:19.849Z,7.43
2023-07-02T08:13:47.235Z,7.03
2023-07-02T08:16:14.681Z,6.75
2023-07-02T08:18:42.063Z,6.93
2023-07-02T08:21:09.546Z,7.00
2023-07-02T08:23:36.915Z,7.72
2023-07-02T08:26:04.529Z,7.97
2023-07-02T08:28:31.861Z,8.10
2023-07-02T08:30:59.713Z,8.38
2023-07-02T08:33:27.141Z,8.30
2023-07-02T08:35:54.453Z,8.48
2023-07-02T08:38:21.802Z,8.98
2023-07-02T08:40:51.352Z,8.77
2023-07-02T08:43:19.155Z,8.10
2023-07-02T08:45:47.476Z,8.68
2023-07-02T08:48:15.171Z,9.07
2023-07-02T08:50:44.299Z,8.50
2023-07-02T08:53:11.657Z,8.18
2023-07-02T08:55:38.987Z,8.13
2023-07-02T08:58:06.301Z,7.70
2023-07-02T09:00:37.744Z,8.32
2023-07-02T09:03:16.595Z,7.78
2023-07-02T09:05:53.590Z,8.07
2023-07-02T09:08:30.589Z,7.20
2023-07-02T09:11:18.910Z,7.80
2023-07-02T09:13:51.170Z,7.80
2023-07-02T09:16:31.908Z,7.93
2023-07-02T09:19:08.903Z,7.78
2023-07-02T09:21:47.471Z,8.10
2023-07-02T09:24:23.904Z,8.25
2023-07-02T09:26:52.384Z,9.27
2023-07-02T09:29:25.155Z,8.32
2023-07-02T09:32:08.030Z,8.27
2023-07-02T09:37:06.878Z,8.35
2023-07-02T09:39:36.900Z,8.30
2023-07-02T09:42:07.888Z,8.55
2023-07-02T09:44:36.348Z,8.70
2023-07-02T09:47:04.830Z,9.13
2023-07-02T09:49:46.047Z,9.18
2023-07-02T09:52:14.820Z,8.77
2023-07-02T09:54:43.621Z,8.70
2023-07-02T09:57:11.368Z,8.73
2023-07-02T09:59:40.525Z,8.82
2023-07-02T10:02:09.709Z,8.48
2023-07-02T10:04:44.785Z,8.77
2023-07-02T10:07:13.628Z,10.15
2023-07-02T10:09:46.229Z,10.23
2023-07-02T10:12:24.050Z,10.20
2023-07-02T10:14:54.461Z,11.10
2023-07-02T10:17:40.210Z,11.18
2023-07-02T10:20:09.373Z,10.98
2023-07-02T10:22:54.585Z,10.68
2023-07-02T10:25:36.158Z,10.65
2023-07-02T10:28:15.185Z,11.48
2023-07-02T10:30:42.852Z,11.35
2023-07-02T10:33:13.235Z,11.82
2023-07-02T10:35:43.443Z,11.93
2023-07-02T10:38:20.387Z,11.77
2023-07-02T10:40:48.246Z,12.40
2023-07-02T10:43:25.194Z,13.32
2023-07-02T10:45:53.144Z,13.82
2023-07-02T10:48:20.512Z,14.35
2023-07-02T10:50:48.171Z,14.35
2023-07-02T10:53:19.985Z,14.05
2023-07-02T10:55:56.508Z,13.23
2023-07-02T10:58:25.136Z,13.65
2023-07-02T11:00:53.279Z,13.80
2023-07-02T11:03:26.183Z,13.20
2023-07-02T11:05:55.035Z,13.63
2023-07-02T11:08:24.484Z,13.80
2023-07-02T11:10:52.258Z,14.23
2023-07-02T11:13:21.154Z,14.32
2023-07-02T11:15:49.513Z,15.07
2023-07-02T11:18:19.074Z,15.50
2023-07-02T11:20:48.048Z,16.27
2023-07-02T11:23:25.998Z,17.55
2023-07-02T11:26:11.472Z,17.77
2023-07-02T11:28:51.563Z,17.67
2023-07-02T11:31:27.621Z,18.08
2023-07-02T11:33:55.267Z,18.98
2023-07-02T11:36:27.975Z,19.27
2023-07-02T11:38:57.036Z,20.13
2023-07-02T11:41:24.394Z,19.02
2023-07-02T11:43:51.691Z,19.88
2023-07-02T11:46:19.080Z,20.15
2023-07-02T11:48:46.457Z,20.13
2023-07-02T11:51:13.914Z,19.42
2023-07-02T11:53:41.344Z,19.25
2023-07-02T11:56:08.711Z,19.88
2023-07-02T11:58:36.052Z,18.80
2023-07-02T12:01:03.432Z,19.50
2023-07-02T12:03:31.558Z,19.45
2023-07-02T12:05:58.968Z,19.08
2023-07-02T12:08:26.440Z,19.38
2023-07-02T12:10:55.221Z,18.88
2023-07-02T12:13:22.544Z,17.40
2023-07-02T12:15:52.223Z,18.30
2023-07-02T12:18:19.603Z,18.15
2023-07-02T12:20:46.978Z,18.08
2023-07-02T12:23:14.460Z,17.80
2023-07-02T12:25:41.915Z,18.58
2023-07-02T12:28:11.343Z,18.00
2023-07-02T12:30:40.180Z,17.27
2023-07-02T12:33:07.527Z,16.40
2023-07-02T12:35:34.830Z,16.50
2023-07-02T12:38:04.782Z,17.05
2023-07-02T12:40:32.412Z,16.70
2023-07-02T12:42:59.835Z,16.40
2023-07-02T12:45:27.196Z,16.05
2023-07-02T12:47:54.534Z,15.13
2023-07-02T12:50:21.976Z,15.60
2023-07-02T12:52:49.358Z,14.98
2023-07-02T12:55:16.788Z,14.60
2023-07-02T12:57:44.179Z,14.93
2023-07-02T13:00:12.163Z,13.95
2023-07-02T13:02:50.144Z,13.85
2023-07-02T13:05:26.000Z,13.02
2023-07-02T13:07:53.399Z,12.93
2023-07-02T13:10:20.816Z,12.27
2023-07-02T13:12:48.216Z,12.52
2023-07-02T13:15:15.620Z,12.82
2023-07-02T13:17:44.941Z,11.75
2023-07-02T13:20:12.561Z,12.35
2023-07-02T13:22:39.930Z,12.27
2023-07-02T13:25:08.087Z,11.95
2023-07-02T13:27:35.462Z,11.55
2023-07-02T13:30:03.309Z,11.18
2023-07-02T13:32:32.216Z,10.57
2023-07-02T13:35:00.161Z,11.52
2023-07-02T13:37:27.542Z,10.63
2023-07-02T13:39:54.924Z,10.68
2023-07-02T13:42:22.290Z,10.18
2023-07-02T13:44:49.679Z,10.05
2023-07-02T13:47:17.094Z,9.75
2023-07-02T13:49:45.050Z,9.88
2023-07-02T13:52:12.340Z,10.75
2023-07-02T13:54:39.618Z,10.43
2023-07-02T13:57:07.357Z,9.63
2023-07-02T13:59:34.708Z,9.95
2023-07-02T14:02:02.210Z,9.68
2023-07-02T14:04:29.721Z,9.73
2023-07-02T14:06:57.092Z,10.00
2023-07-02T14:09:24.423Z,10.43
2023-07-02T14:11:51.736Z,10.57
2023-07-02T14:14:19.182Z,10.23
2023-07-02T14:16:46.567Z,11.20
2023-07-02T14:19:14.036Z,10.80
2023-07-02T14:21:41.479Z,11.73
2023-07-02T14:24:08.965Z,10.70
2023-07-02T14:26:36.498Z,11.48
2023-07-02T14:29:03.933Z,10.90
2023-07-02T14:31:31.315Z,11.45
2023-07-02T14:33:58.862Z,10.90
2023-07-02T14:36:26.253Z,10.38
2023-07-02T14:38:53.695Z,11.07
2023-07-02T14:41:21.231Z,10.38
2023-07-02T14:43:48.549Z,10.55
2023-07-02T14:46:16.043Z,10.45
2023-07-02T14:48:43.437Z,9.90
2023-07-02T14:51:10.819Z,10.90
2023-07-02T14:53:38.553Z,10.30
2023-07-02T14:56:05.944Z,9.73
2023-07-02T14:58:33.518Z,10.30
2023-07-02T15:01:01.137Z,10.50
2023-07-02T15:03:30.195Z,9.40
2023-07-02T15:06:08.532Z,10.70
2023-07-02T15:08:35.998Z,9.60
2023-07-02T15:11:03.883Z,9.57
2023-07-02T15:13:31.364Z,9.70
2023-07-02T15:15:58.960Z,9.35
2023-07-02T15:18:28.029Z,9.00
2023-07-02T15:20:55.955Z,8.95
2023-07-02T15:23:24.581Z,9.13
2023-07-02T15:25:53.781Z,8.02
2023-07-02T15:28:22.010Z,8.40
2023-07-02T15:30:57.275Z,8.43
2023-07-02T15:33:25.208Z,7.97
2023-07-02T15:35:53.156Z,8.30
2023-07-02T15:38:21.545Z,7.78
2023-07-02T15:40:50.300Z,8.27
2023-07-02T15:43:17.665Z,8.73
2023-07-02T15:45:45.136Z,8.68
2023-07-02T15:48:12.652Z,8.50
2023-07-02T15:50:40.314Z,8.90
2023-07-02T15:53:07.645Z,9.02
2023-07-02T15:55:36.571Z,9.25
2023-07-02T15:58:04.279Z,9.60
2023-07-02T16:00:32.317Z,10.10
2023-07-02T16:03:01.348Z,9.93
2023-07-02T16:05:29.124Z,10.48
2023-07-02T16:07:56.791Z,10.38
2023-07-02T16:10:24.199Z,10.75
2023-07-02T16:12:53.425Z,11.18
2023-07-02T16:15:21.197Z,11.38
2023-07-02T16:17:49.615Z,11.70
2023-07-02T16:20:17.103Z,11.52
2023-07-02T16:22:44.574Z,12.70
2023-07-02T16:25:12.585Z,12.65
2023-07-02T16:27:39.957Z,12.60
2023-07-02T16:30:07.962Z,13.45
2023-07-02T16:32:35.352Z,14.60
2023-07-02T16:35:02.773Z,15.15
2023-07-02T16:37:30.201Z,14.30
2023-07-02T16:39:57.547Z,14.48
2023-07-02T16:42:24.915Z,15.02
2023-07-02T16:44:52.333Z,14.43
2023-07-02T16:47:19.768Z,15.15
2023-07-02T16:49:47.676Z,14.32
2023-07-02T16:52:16.040Z,14.65
2023-07-02T16:54:44.198Z,14.93
2023-07-02T16:57:11.575Z,14.85
2023-07-02T16:59:39.208Z,14.00
2023-07-02T17:02:08.966Z,13.77
2023-07-02T17:04:36.370Z,14.02
2023-07-02T17:07:03.909Z,14.43
2023-07-02T17:09:41.384Z,13.02
2023-07-02T17:12:15.072Z,13.43
2023-07-02T17:14:44.807Z,13.73
2023-07-02T17:17:22.199Z,14.27
2023-07-02T17:19:51.782Z,13.00
2023-07-02T17:22:27.634Z,12.45
2023-07-02T17:24:57.781Z,12.73
2023-07-02T17:27:30.771Z,13.00
2023-07-02T17:30:01.321Z,12.98
2023-07-02T17:32:30.039Z,13.68
2023-07-02T17:34:58.468Z,13.05
2023-07-02T17:37:26.252Z,14.00
2023-07-02T17:39:54.286Z,13.73
2023-07-02T17:42:21.687Z,13.93
2023-07-02T17:44:49.512Z,13.57
2023-07-02T17:47:18.824Z,14.60
2023-07-02T17:49:48.391Z,14.13
2023-07-02T17:52:20.640Z,14.40
2023-07-02T17:54:51.355Z,15.63
2023-07-02T17:57:19.998Z,15.98
2023-07-02T17:59:48.577Z,16.00
2023-07-02T18:02:17.910Z,16.85
2023-07-02T18:04:46.583Z,16.60
2023-07-02T18:07:19.706Z,16.55
2023-07-02T18:09:52.565Z,16.60
2023-07-02T18:12:26.839Z,15.68
2023-07-02T18:17:24.830Z,15.10
2023-07-02T18:19:54.199Z,15.60
2023-07-02T18:22:22.027Z,16.02
2023-07-02T18:24:49.390Z,15.80
2023-07-02T18:27:17.729Z,15.82
2023-07-02T18:29:48.740Z,15.38
2023-07-02T18:32:16.172Z,15.02
2023-07-02T18:34:44.292Z,14.90
2023-07-02T18:37:11.645Z,13.60
2023-07-02T18:39:39.528Z,13.57
2023-07-02T18:42:09.664Z,12.73
2023-07-02T18:44:37.235Z,12.25
2023-07-02T18:47:10.803Z,10.52
2023-07-02T18:49:39.587Z,10.20
2023-07-02T18:52:10.545Z,8.95
2023-07-02T18:54:38.357Z,8.27
2023-07-02T18:57:07.895Z,8.30
2023-07-02T18:59:35.944Z,8.02
2023-07-02T19:02:05.558Z,7.40
2023-07-02T19:04:36.723Z,7.68
2023-07-02T19:07:07.116Z,8.48
2023-07-02T19:09:37.268Z,8.05
2023-07-02T19:12:08.087Z,8.07
2023-07-02T19:14:37.126Z,8.30
2023-07-02T19:17:09.450Z,7.85
2023-07-02T19:19:42.406Z,8.60
2023-07-02T19:22:14.844Z,8.25
2023-07-02T19:24:42.630Z,8.52
2023-07-02T19:27:12.207Z,8.77
2023-07-02T19:29:39.533Z,8.45
2023-07-02T19:32:07.628Z,8.27
2023-07-02T19:34:35.532Z,8.65
2023-07-02T19:37:03.064Z,8.57
2023-07-02T19:39:31.554Z,8.27
2023-07-02T19:41:59.087Z,8.23
2023-07-02T19:44:26.428Z,8.68
2023-07-02T19:46:53.779Z,8.10
2023-07-02T19:49:21.392Z,8.07
2023-07-02T19:51:51.116Z,8.45
2023-07-02T19:54:20.178Z,7.90
2023-07-02T19:56:49.648Z,8.18
2023-07-02T19:59:18.005Z,8.18
2023-07-02T20:01:45.594Z,8.65
2023-07-02T20:04:24.468Z,7.95
2023-07-02T20:06:52.151Z,7.93
2023-07-02T20:09:19.869Z,8.02
2023-07-02T20:11:47.319Z,7.88
2023-07-02T20:14:17.033Z,7.90
2023-07-02T20:16:44.903Z,7.70
2023-07-02T20:19:12.427Z,8.00
2023-07-02T20:21:41.572Z,7.95
2023-07-02T20:24:08.891Z,7.82
2023-07-02T20:26:36.199Z,8.38
2023-07-02T20:29:03.727Z,7.25
2023-07-02T20:31:31.457Z,7.90
2023-07-02T20:34:02.285Z,7.90
2023-07-02T20:36:31.551Z,8.00
2023-07-02T20:39:00.345Z,7.80
2023-07-02T20:41:29.054Z,7.55
2023-07-02T20:44:01.408Z,7.85
2023-07-02T20:46:32.585Z,8.15
2023-07-02T20:49:00.335Z,7.50
2023-07-02T20:51:28.523Z,8.07
2023-07-02T20:53:56.000Z,8.05
2023-07-02T20:56:23.489Z,8.00
2023-07-02T20:58:52.006Z,8.00
2023-07-02T21:01:19.391Z,8.02
2023-07-02T21:03:46.902Z,8.55
2023-07-02T21:06:14.361Z,7.85
2023-07-02T21:08:41.754Z,8.65
2023-07-02T21:11:23.834Z,7.78
2023-07-02T21:13:56.897Z,8.07
2023-07-02T21:16:24.902Z,8.02
2023-07-02T21:18:52.454Z,7.55
2023-07-02T21:21:19.903Z,8.30
2023-07-02T21:23:47.322Z,8.15
2023-07-02T21:26:14.903Z,7.68
2023-07-02T21:28:42.669Z,7.80
2023-07-02T21:31:14.074Z,8.43
2023-07-02T21:33:41.980Z,8.27
2023-07-02T21:36:10.748Z,7.80
2023-07-02T21:38:39.607Z,7.43
2023-07-02T21:41:08.398Z,8.07
2023-07-02T21:43:36.062Z,7.97
2023-07-02T21:46:06.044Z,8.40
2023-07-02T21:48:34.307Z,7.53
2023-07-02T21:51:01.692Z,7.53
2023-07-02T21:53:29.203Z,7.35
2023-07-02T21:55:57.216Z,6.90
2023-07-02T21:58:24.759Z,7.55
2023-07-02T22:00:52.168Z,7.68
2023-07-02T22:03:19.525Z,7.55
2023-07-02T22:05:53.716Z,7.43
2023-07-02T22:08:21.805Z,6.80
2023-07-02T22:10:50.241Z,6.70
2023-07-02T22:13:18.770Z,6.68
2023-07-02T22:15:46.680Z,7.40
2023-07-02T22:18:14.226Z,7.55
2023-07-02T22:20:42.880Z,7.60
2023-07-02T22:23:11.501Z,6.65
2023-07-02T22:25:43.450Z,6.70
2023-07-02T22:28:11.451Z,7.65
2023-07-02T22:30:39.041Z,6.90
2023-07-02T22:33:06.414Z,7.05
2023-07-02T22:35:34.437Z,6.72
2023-07-02T22:38:01.878Z,6.75
2023-07-02T22:40:30.854Z,7.05
2023-07-02T22:42:58.385Z,6.70
2023-07-02T22:45:25.989Z,7.05
2023-07-02T22:47:53.373Z,6.90
2023-07-02T22:50:21.633Z,6.72
2023-07-02T22:52:51.189Z,6.40
2023-07-02T22:55:18.676Z,6.45
2023-07-02T22:57:46.080Z,6.00
2023-07-02T23:00:17.014Z,6.60
2023-07-02T23:02:46.347Z,6.47
2023-07-02T23:05:18.902Z,6.28
2023-07-02T23:07:47.425Z,6.43
2023-07-02T23:10:17.277Z,6.35
2023-07-02T23:12:47.994Z,6.18
2023-07-02T23:15:18.397Z,6.30
2023-07-02T23:17:48.372Z,5.90
2023-07-02T23:20:16.784Z,6.20
2023-07-02T23:22:44.722Z,5.63
2023-07-02T23:25:14.421Z,6.35
2023-07-02T23:27:43.234Z,5.95
2023-07-02T23:30:15.139Z,6.40
2023-07-02T23:32:42.946Z,5.57
2023-07-02T23:35:11.610Z,5.20
2023-07-02T23:37:42.878Z,5.40
2023-07-02T23:40:15.554Z,6.13
2023-07-02T23:42:43.185Z,5.82
2023-07-02T23:45:11.762Z,5.25
2023-07-02T23:47:39.272Z,5.70
2023-07-02T23:50:08.896Z,5.70
2023-07-02T23:52:39.219Z,5.10
2023-07-02T23:55:11.630Z,5.93
2023-07-02T23:57:39.290Z,5.20
